Detall de PIREP

Printer-friendly versionPDF version

[2012/11/17 15:25:00]
Flight IATA:CT3404
Pilot Number:042
Company ICAO:CAT
Aircraft Type:MD11/E
PAX:0
Aircraft Registration:CARGO
Departing Airport: LEBL
Destination Airport: GCLP
Alternate Airport:GCXO
Online: VATSIM
Route:LOTOS UM985 YES UM985 MGA UN869 RUSIK
Flight Level:F370
No Slew and time accel
No pause
Crash detect
Detect pilot in Cockpit between each 30 and 45 minutes
15:25 Zero fuel Weight: 393872 Lbs, Fuel Weight: 69850 Lbs
15:25 VATSIM:LEBL 171430Z 10005KT 070V130 9999 FEW020 BKN048 18/15 Q1010 NOSIG
15:25 VATSIM:GCLP 171430Z 35018G33KT 310V010 9999 SCT030 25/11 Q1016 WS ALL RWY NOSIG
15:26 VOICE CATALONIAN/CARGO FLIGHT
15:39 Parking Brakes off
15:56 Take-off
15:56 Take off Weight: 461432 Lbs
15:56 Wind: 082º @ 006 Knots Heading: 245º
15:56 POS N41º 17´ 05´´ E002º 04´ 54´´
15:56 Gear Up: 167 Knots
15:56 Flaps:5 at 167 Knots
15:57 Flaps:4 at 181 Knots
15:57 Flaps:3 at 184 Knots
15:57 Flaps:2 at 187 Knots
15:57 Flaps:1 at 188 Knots
16:00 Flaps:0 at 223 Knots
16:11 Wind:215º@029 Knots Heading: 228º Ground Speed: 448 Knots Altitude 30938 ft
16:16 TOC
16:16 Fuel Weight: 57470 Lb
16:26 Wind:204º@027 Knots Heading: 226º Ground Speed: 440 Knots Altitude 36817 ft
16:41 Wind:245º@037 Knots Heading: 227º Ground Speed: 427 Knots Altitude 36830 ft
16:56 Wind:255º@036 Knots Heading: 227º Ground Speed: 429 Knots Altitude 36824 ft
17:11 Wind:259º@040 Knots Heading: 220º Ground Speed: 431 Knots Altitude 36788 ft
17:26 Wind:266º@048 Knots Heading: 218º Ground Speed: 427 Knots Altitude 36843 ft
17:41 Wind:266º@061 Knots Heading: 216º Ground Speed: 421 Knots Altitude 36902 ft
17:56 Wind:262º@081 Knots Heading: 217º Ground Speed: 404 Knots Altitude 36955 ft
18:11 Wind:266º@096 Knots Heading: 249º Ground Speed: 365 Knots Altitude 36965 ft
18:26 Wind:269º@099 Knots Heading: 249º Ground Speed: 366 Knots Altitude 37057 ft
18:41 Wind:271º@084 Knots Heading: 247º Ground Speed: 381 Knots Altitude 37080 ft
18:43 TOD
18:43 Fuel Weight: 22333 Lb
18:56 Wind:322º@025 Knots Heading: 259º Ground Speed: 344 Knots Altitude 11768 ft
18:58 Flaps:1 at 251 Knots
19:02 Flaps:2 at 241 Knots
19:02 Flaps:3 at 246 Knots
19:02 Flaps:4 at 248 Knots
19:03 Flaps:5 at 203 Knots
19:03 Gear Down: 203 Knots
19:03 Flaps:4 at 203 Knots
19:03 Flaps:5 at 201 Knots
19:03 Flaps:6 at 201 Knots
19:03 Flaps:7 at 190 Knots
19:03 Flaps:6 at 190 Knots
19:04 Flaps:7 at 188 Knots
19:04 Flaps:8 at 175 Knots
19:04 Flaps:7 at 175 Knots
19:06 Flaps:8 at 174 Knots
19:06 TouchDown:Rate -69 ft/min Speed: 162 Knots
19:07 VATSIM:GCLP 171830Z 33009KT 310V010 9999 FEW025 SCT060 21/17 Q1017 NOSIG
19:07 Land
19:07 Wind:008º@015 Knots
19:07 Heading: 022º
19:07 Flight Duration: 03:11
19:07 Landing Weight: 412828 Lbs
19:07 POS N27º 56´ 03´´ W015º 23´ 07´´
19:10 Parking brakes on
19:10 Block to Block Duration: 03:31
19:10 Final Fuel: 18461 Lbls
19:10 Spent Fuel: 51388 Lbls
19:10 Flight Length: 1160 NM
19:10 TOD Land Length: 123 NM

Exportar CSV

Powered by Drupal - Modified by Danger4k